createdAt,value
2018-12-23T00:01:34.176Z,16.53
2018-12-23T00:04:02.139Z,16.83
2018-12-23T00:06:30.092Z,17.23
2018-12-23T00:08:58.047Z,17.73
2018-12-23T00:11:26.008Z,16.40
2018-12-23T00:13:53.964Z,19.77
2018-12-23T00:16:21.928Z,16.73
2018-12-23T00:18:49.889Z,17.00
2018-12-23T00:21:17.936Z,16.77
2018-12-23T00:23:45.899Z,16.90
2018-12-23T00:26:13.856Z,17.07
2018-12-23T00:28:41.904Z,17.70
2018-12-23T00:31:09.872Z,17.10
2018-12-23T00:33:37.837Z,18.47
2018-12-23T00:36:05.892Z,17.40
2018-12-23T00:38:33.851Z,18.37
2018-12-23T00:41:01.897Z,18.03
2018-12-23T00:43:29.981Z,17.70
2018-12-23T00:45:58.059Z,17.77
2018-12-23T00:48:26.017Z,18.33
2018-12-23T00:50:54.063Z,17.50
2018-12-23T00:53:22.108Z,17.13
2018-12-23T00:55:50.103Z,16.70
2018-12-23T00:58:18.065Z,16.93
2018-12-23T01:00:46.125Z,15.53
2018-12-23T01:03:14.131Z,14.00
2018-12-23T01:05:42.157Z,13.73
2018-12-23T01:08:10.157Z,15.07
2018-12-23T01:10:38.164Z,13.40
2018-12-23T01:13:06.157Z,13.10
2018-12-23T01:15:34.204Z,13.13
2018-12-23T01:18:02.175Z,12.80
2018-12-23T01:20:30.133Z,11.80
2018-12-23T01:22:58.180Z,13.20
2018-12-23T01:25:26.139Z,13.63
2018-12-23T01:27:54.097Z,12.40
2018-12-23T01:30:22.143Z,11.10
2018-12-23T01:32:50.096Z,11.03
2018-12-23T01:35:18.058Z,10.80
2018-12-23T01:37:46.018Z,11.90
2018-12-23T01:40:14.063Z,11.30
2018-12-23T01:42:42.033Z,11.30
2018-12-23T01:45:09.988Z,12.97
2018-12-23T01:47:38.041Z,13.27
2018-12-23T01:50:06.031Z,13.50
2018-12-23T01:52:33.993Z,14.03
2018-12-23T01:55:02.073Z,15.27
2018-12-23T01:57:30.084Z,16.80
2018-12-23T01:59:58.085Z,17.53
2018-12-23T02:02:26.144Z,17.50
2018-12-23T02:04:54.146Z,19.50
2018-12-23T02:07:22.182Z,21.60
2018-12-23T02:09:50.226Z,20.07
2018-12-23T02:12:18.276Z,19.00
2018-12-23T02:14:46.233Z,20.87
2018-12-23T02:17:14.285Z,21.20
2018-12-23T02:19:42.266Z,20.83
2018-12-23T02:22:10.224Z,21.00
2018-12-23T02:24:38.242Z,22.00
2018-12-23T02:27:06.212Z,19.80
2018-12-23T02:29:34.167Z,20.87
2018-12-23T02:32:02.128Z,20.17
2018-12-23T02:34:30.084Z,21.40
2018-12-23T02:36:58.054Z,21.07
2018-12-23T02:39:26.020Z,21.03
2018-12-23T02:42:03.980Z,19.13
2018-12-23T02:44:32.032Z,19.93
2018-12-23T02:47:00.000Z,20.63
2018-12-23T02:49:28.001Z,19.40
2018-12-23T02:51:55.957Z,20.27
2018-12-23T02:54:23.957Z,19.80
2018-12-23T02:56:51.921Z,20.40
2018-12-23T02:59:19.894Z,20.27
2018-12-23T03:01:47.892Z,21.17
2018-12-23T03:04:15.848Z,20.37
2018-12-23T03:06:43.812Z,19.77
2018-12-23T03:09:11.772Z,19.37
2018-12-23T03:11:39.821Z,19.50
2018-12-23T03:14:07.860Z,18.37
2018-12-23T03:16:35.829Z,18.77
2018-12-23T03:19:03.869Z,17.87
2018-12-23T03:21:31.828Z,18.57
2018-12-23T03:23:59.808Z,18.63
2018-12-23T03:26:27.776Z,17.63
2018-12-23T03:28:55.824Z,18.53
2018-12-23T03:31:23.825Z,18.80
2018-12-23T03:33:51.789Z,16.73
2018-12-23T03:36:19.758Z,18.50
2018-12-23T03:38:47.810Z,18.10
2018-12-23T03:41:15.833Z,17.20
2018-12-23T03:43:43.882Z,17.17
2018-12-23T03:46:11.948Z,16.87
2018-12-23T03:48:39.915Z,16.70
2018-12-23T03:51:07.960Z,16.37
2018-12-23T03:53:36.008Z,16.70
2018-12-23T03:56:04.009Z,15.67
2018-12-23T03:58:31.979Z,14.43
2018-12-23T04:01:00.056Z,16.53
2018-12-23T04:03:28.015Z,15.37
2018-12-23T04:05:56.154Z,15.33
2018-12-23T04:08:24.282Z,15.70
2018-12-23T04:10:52.226Z,14.00
2018-12-23T04:13:20.270Z,14.40
2018-12-23T04:15:48.321Z,14.43
2018-12-23T04:18:16.278Z,15.17
2018-12-23T04:20:44.392Z,13.93
2018-12-23T04:23:12.361Z,15.67
2018-12-23T04:25:40.313Z,16.47
2018-12-23T04:28:08.359Z,14.57
2018-12-23T04:30:36.409Z,14.87
2018-12-23T04:33:04.369Z,16.03
2018-12-23T04:35:32.425Z,16.10
2018-12-23T04:38:00.384Z,15.33
2018-12-23T04:40:28.356Z,16.83
2018-12-23T04:42:56.319Z,16.53
2018-12-23T04:45:24.374Z,15.67
2018-12-23T04:47:52.332Z,12.40
2018-12-23T04:50:20.346Z,8.23
2018-12-23T04:52:48.392Z,6.90
2018-12-23T04:55:16.349Z,3.97
2018-12-23T04:57:44.309Z,3.63
2018-12-23T05:00:12.269Z,5.43
2018-12-23T05:02:40.224Z,6.03
2018-12-23T05:05:08.184Z,8.43
2018-12-23T05:07:36.318Z,10.37
2018-12-23T05:10:05.051Z,11.77
2018-12-23T05:12:33.008Z,10.90
2018-12-23T05:15:00.968Z,11.30
2018-12-23T05:17:28.934Z,11.33
2018-12-23T05:19:56.889Z,10.80
2018-12-23T05:22:24.938Z,10.43
2018-12-23T05:24:52.897Z,9.90
2018-12-23T05:27:20.923Z,10.13
2018-12-23T05:29:48.968Z,11.13
2018-12-23T05:32:16.986Z,10.77
2018-12-23T05:34:44.951Z,11.37
2018-12-23T05:37:12.908Z,11.57
2018-12-23T05:39:40.876Z,11.10
2018-12-23T05:42:08.842Z,11.67
2018-12-23T05:44:36.857Z,10.93
2018-12-23T05:47:04.826Z,11.70
2018-12-23T05:49:32.780Z,11.80
2018-12-23T05:52:00.745Z,11.83
2018-12-23T05:54:28.801Z,11.80
2018-12-23T05:56:56.751Z,12.83
2018-12-23T05:59:24.760Z,12.07
2018-12-23T06:01:52.719Z,12.27
2018-12-23T06:04:20.680Z,12.83
2018-12-23T06:06:48.641Z,12.37
2018-12-23T06:09:16.601Z,12.10
2018-12-23T06:11:44.645Z,11.93
2018-12-23T06:14:12.604Z,12.50
2018-12-23T06:16:40.570Z,12.67
2018-12-23T06:19:08.616Z,12.77
2018-12-23T06:21:36.592Z,13.90
2018-12-23T06:24:04.531Z,13.63
2018-12-23T06:26:32.495Z,12.97
2018-12-23T06:29:00.541Z,13.17
2018-12-23T06:31:28.584Z,13.37
2018-12-23T06:33:56.642Z,14.03
2018-12-23T06:36:24.700Z,11.30
2018-12-23T06:38:52.655Z,12.23
2018-12-23T06:41:20.706Z,11.33
2018-12-23T06:43:48.723Z,10.67
2018-12-23T06:46:16.814Z,10.67
2018-12-23T06:48:44.840Z,10.10
2018-12-23T06:51:12.872Z,9.40
2018-12-23T06:53:40.824Z,8.67
2018-12-23T06:56:08.780Z,8.57
2018-12-23T06:58:36.739Z,7.83
2018-12-23T07:01:04.906Z,7.97
2018-12-23T07:03:32.893Z,7.63
2018-12-23T07:06:00.948Z,7.47
2018-12-23T07:08:28.958Z,6.67
2018-12-23T07:10:56.924Z,6.13
2018-12-23T07:13:24.880Z,6.50
2018-12-23T07:15:52.888Z,6.57
2018-12-23T07:18:20.889Z,7.80
2018-12-23T07:20:48.936Z,6.70
2018-12-23T07:23:16.906Z,7.10
2018-12-23T07:25:44.868Z,7.47
2018-12-23T07:28:12.821Z,7.43
2018-12-23T07:30:40.780Z,8.10
2018-12-23T07:33:08.725Z,7.93
2018-12-23T07:35:36.680Z,7.70
2018-12-23T07:38:05.146Z,8.47
2018-12-23T07:40:33.263Z,7.40
2018-12-23T07:43:01.239Z,7.83
2018-12-23T07:45:29.248Z,7.63
2018-12-23T07:47:57.208Z,7.47
2018-12-23T07:50:25.172Z,7.20
2018-12-23T07:52:53.133Z,7.67
2018-12-23T07:55:21.145Z,7.80
2018-12-23T07:57:49.097Z,6.97
2018-12-23T08:00:17.091Z,6.57
2018-12-23T08:02:45.053Z,7.03
2018-12-23T08:05:13.010Z,6.47
2018-12-23T08:07:40.960Z,6.60
2018-12-23T08:10:09.016Z,6.37
2018-12-23T08:12:36.967Z,5.63
2018-12-23T08:15:05.287Z,5.70
2018-12-23T08:17:33.248Z,6.50
2018-12-23T08:20:01.215Z,5.53
2018-12-23T08:22:29.168Z,6.57
2018-12-23T08:24:57.301Z,7.33
2018-12-23T08:27:25.239Z,7.47
2018-12-23T08:29:53.252Z,8.00
2018-12-23T08:32:21.205Z,8.30
2018-12-23T08:34:49.164Z,9.40
2018-12-23T08:37:17.124Z,10.03
2018-12-23T08:39:45.084Z,12.23
2018-12-23T08:42:13.054Z,11.50
2018-12-23T08:44:41.007Z,11.60
2018-12-23T08:47:08.969Z,12.03
2018-12-23T08:49:37.020Z,10.70
2018-12-23T08:52:04.972Z,10.77
2018-12-23T08:54:32.926Z,13.60
2018-12-23T08:57:00.983Z,12.27
2018-12-23T08:59:28.924Z,11.87
2018-12-23T09:01:57.041Z,13.27
2018-12-23T09:04:25.000Z,13.07
2018-12-23T09:06:52.955Z,13.10
2018-12-23T09:09:20.916Z,13.10
2018-12-23T09:11:48.876Z,13.03
2018-12-23T09:14:17.015Z,13.17
2018-12-23T09:16:44.942Z,12.97
2018-12-23T09:19:12.901Z,12.17
2018-12-23T09:21:40.860Z,11.13
2018-12-23T09:24:08.830Z,12.80
2018-12-23T09:26:36.805Z,12.67
2018-12-23T09:29:04.852Z,11.23
2018-12-23T09:31:32.816Z,12.50
2018-12-23T09:34:00.780Z,12.53
2018-12-23T09:36:28.720Z,11.70
2018-12-23T09:38:56.780Z,13.40
2018-12-23T09:41:24.743Z,12.40
2018-12-23T09:43:52.706Z,12.70
2018-12-23T09:46:20.754Z,12.57
2018-12-23T09:48:48.796Z,11.03
2018-12-23T09:51:16.757Z,11.93
2018-12-23T09:53:44.715Z,11.07
2018-12-23T09:56:12.680Z,11.70
2018-12-23T09:58:40.640Z,11.63
2018-12-23T10:01:08.608Z,12.47
2018-12-23T10:03:36.620Z,10.63
2018-12-23T10:06:04.564Z,10.60
2018-12-23T10:08:32.530Z,10.70
2018-12-23T10:11:00.584Z,10.30
2018-12-23T10:13:28.540Z,10.83
2018-12-23T10:15:56.500Z,10.57
2018-12-23T10:18:24.457Z,10.57
2018-12-23T10:20:52.520Z,11.10
2018-12-23T10:23:20.480Z,11.70
2018-12-23T10:25:48.436Z,11.83
2018-12-23T10:28:16.520Z,11.63
2018-12-23T10:30:44.485Z,11.77
2018-12-23T10:33:12.445Z,10.70
2018-12-23T10:35:40.504Z,9.57
2018-12-23T10:38:08.517Z,10.17
2018-12-23T10:40:36.472Z,10.83
2018-12-23T10:43:04.459Z,9.87
2018-12-23T10:45:32.564Z,10.03
2018-12-23T10:48:00.521Z,8.47
2018-12-23T10:50:28.476Z,7.57
2018-12-23T10:52:56.441Z,7.83
2018-12-23T10:55:24.384Z,8.53
2018-12-23T10:57:52.376Z,7.87
2018-12-23T11:00:20.425Z,7.80
2018-12-23T11:02:48.637Z,7.93
2018-12-23T11:05:16.650Z,8.27
2018-12-23T11:07:44.691Z,7.70
2018-12-23T11:10:12.645Z,8.43
2018-12-23T11:12:40.609Z,8.07
2018-12-23T11:15:08.699Z,7.70
2018-12-23T11:17:36.653Z,8.27
2018-12-23T11:20:06.168Z,8.25
2018-12-23T11:22:34.122Z,8.70
2018-12-23T11:25:02.129Z,6.57
2018-12-23T11:27:30.080Z,7.13
2018-12-23T11:29:58.117Z,7.87
2018-12-23T11:32:26.084Z,7.90
2018-12-23T11:34:54.030Z,8.63
2018-12-23T11:37:22.076Z,9.57
2018-12-23T11:39:50.030Z,9.77
2018-12-23T11:42:17.976Z,11.43
2018-12-23T11:44:46.016Z,11.43
2018-12-23T11:47:13.989Z,11.30
2018-12-23T11:49:41.952Z,12.00
2018-12-23T11:52:09.912Z,12.50
2018-12-23T11:54:37.964Z,11.67
2018-12-23T11:57:05.912Z,11.97
2018-12-23T11:59:34.375Z,12.43
2018-12-23T12:02:02.429Z,12.53
2018-12-23T12:04:30.384Z,12.07
2018-12-23T12:06:58.427Z,13.07
2018-12-23T12:09:26.395Z,13.40
2018-12-23T12:11:54.436Z,11.43
2018-12-23T12:14:22.472Z,12.20
2018-12-23T12:16:50.427Z,11.40
2018-12-23T12:19:18.380Z,11.97
2018-12-23T12:21:46.344Z,11.33
2018-12-23T12:24:14.304Z,11.97
2018-12-23T12:26:42.269Z,12.30
2018-12-23T12:29:10.986Z,12.20
2018-12-23T12:31:39.053Z,13.13
2018-12-23T12:34:07.068Z,12.40
2018-12-23T12:36:35.028Z,12.10
2018-12-23T12:39:04.460Z,11.97
2018-12-23T12:41:32.428Z,12.30
2018-12-23T12:44:00.371Z,11.57
2018-12-23T12:46:28.335Z,11.47
2018-12-23T12:48:56.386Z,11.40
2018-12-23T12:51:24.348Z,12.30
2018-12-23T12:53:52.304Z,11.27
2018-12-23T12:56:20.360Z,10.80
2018-12-23T12:58:48.319Z,11.13
2018-12-23T13:01:16.269Z,10.83
2018-12-23T13:03:44.324Z,10.60
2018-12-23T13:06:12.291Z,10.50
2018-12-23T13:08:40.247Z,12.20
2018-12-23T13:11:08.195Z,12.10
2018-12-23T13:13:36.152Z,12.50
2018-12-23T13:16:04.183Z,12.50
2018-12-23T13:18:32.141Z,12.80
2018-12-23T13:21:00.285Z,11.67
2018-12-23T13:23:28.295Z,12.90
2018-12-23T13:25:56.257Z,12.70
2018-12-23T13:28:24.314Z,11.97
2018-12-23T13:30:52.255Z,12.33
2018-12-23T13:33:20.205Z,12.17
2018-12-23T13:35:48.305Z,11.87
2018-12-23T13:38:16.357Z,11.20
2018-12-23T13:40:48.045Z,11.63
2018-12-23T13:43:29.791Z,11.83
2018-12-23T13:46:01.373Z,11.17
2018-12-23T13:48:48.004Z,12.50
2018-12-23T13:51:19.595Z,10.90
2018-12-23T13:53:52.281Z,10.83
2018-12-23T13:59:52.736Z,10.23
2018-12-23T14:02:30.754Z,10.83
2018-12-23T14:05:09.241Z,10.43
2018-12-23T14:07:44.701Z,10.60
2018-12-23T14:10:29.257Z,10.10
2018-12-23T14:13:00.267Z,10.57
2018-12-23T14:15:29.743Z,10.37
2018-12-23T14:17:59.206Z,9.87
2018-12-23T14:20:28.647Z,9.93
2018-12-23T14:22:58.061Z,10.33
2018-12-23T14:25:27.494Z,10.77
2018-12-23T14:27:56.930Z,10.53
2018-12-23T14:30:26.353Z,9.90
2018-12-23T14:32:55.785Z,9.93
2018-12-23T14:35:25.209Z,9.40
2018-12-23T14:37:54.629Z,9.53
2018-12-23T14:40:24.062Z,10.10
2018-12-23T14:42:53.493Z,11.10
2018-12-23T14:45:22.930Z,10.53
2018-12-23T14:47:52.359Z,11.40
2018-12-23T14:50:21.800Z,10.70
2018-12-23T14:52:51.222Z,11.10
2018-12-23T14:55:20.649Z,10.40
2018-12-23T14:57:50.073Z,10.43
2018-12-23T15:00:19.502Z,10.43
2018-12-23T15:02:48.932Z,10.50
2018-12-23T15:05:18.358Z,10.97
2018-12-23T15:07:47.798Z,11.10
2018-12-23T15:10:17.226Z,5.53
2018-12-23T15:12:46.650Z,4.57
2018-12-23T15:15:16.070Z,3.87
2018-12-23T15:17:45.493Z,2.90
2018-12-23T15:20:14.918Z,2.00
2018-12-23T15:22:44.345Z,2.70
2018-12-23T15:25:13.757Z,2.17
2018-12-23T15:27:43.186Z,2.20
2018-12-23T15:30:12.602Z,2.20
2018-12-23T15:32:42.026Z,2.00
2018-12-23T15:35:11.445Z,2.30
2018-12-23T15:37:40.874Z,2.43
2018-12-23T15:40:10.294Z,2.63
2018-12-23T15:42:39.714Z,2.60
2018-12-23T15:45:09.139Z,2.53
2018-12-23T15:47:38.557Z,2.53
2018-12-23T15:50:08.050Z,2.60
2018-12-23T15:52:37.469Z,2.50
2018-12-23T15:55:06.902Z,2.70
2018-12-23T15:57:36.323Z,2.87
2018-12-23T16:00:08.413Z,2.70
2018-12-23T16:02:37.842Z,3.23
2018-12-23T16:05:07.271Z,3.00
2018-12-23T16:07:36.681Z,2.77
2018-12-23T16:10:07.634Z,2.80
2018-12-23T16:12:37.058Z,3.10
2018-12-23T16:15:06.545Z,3.77
2018-12-23T16:17:35.966Z,3.67
2018-12-23T16:20:08.526Z,3.10
2018-12-23T16:22:37.936Z,3.57
2018-12-23T16:25:07.438Z,3.27
2018-12-23T16:27:36.853Z,3.80
2018-12-23T16:30:09.474Z,3.45
2018-12-23T16:32:38.915Z,4.43
2018-12-23T16:35:08.330Z,4.00
2018-12-23T16:37:37.749Z,4.23
2018-12-23T16:40:10.321Z,4.30
2018-12-23T16:42:39.750Z,4.90
2018-12-23T16:45:09.172Z,5.40
2018-12-23T16:47:38.599Z,5.97
2018-12-23T16:50:08.454Z,5.70
2018-12-23T16:52:37.882Z,6.10
2018-12-23T16:55:07.373Z,5.40
2018-12-23T16:57:36.808Z,6.50
2018-12-23T17:00:09.369Z,6.43
2018-12-23T17:02:38.798Z,6.80
2018-12-23T17:05:08.218Z,5.67
2018-12-23T17:07:37.646Z,6.50
2018-12-23T17:10:08.434Z,6.20
2018-12-23T17:12:38.018Z,6.87
2018-12-23T17:15:07.615Z,6.90
2018-12-23T17:17:37.037Z,5.93
2018-12-23T17:20:09.006Z,5.80
2018-12-23T17:22:38.429Z,4.20
2018-12-23T17:25:07.865Z,4.27
2018-12-23T17:27:37.286Z,4.07
2018-12-23T17:30:07.359Z,3.97
2018-12-23T17:32:36.779Z,3.90
2018-12-23T17:35:06.274Z,3.50
2018-12-23T17:37:35.693Z,3.43
2018-12-23T17:40:06.451Z,3.70
2018-12-23T17:42:35.874Z,3.43
2018-12-23T17:45:05.530Z,3.33
2018-12-23T17:47:34.986Z,2.93
2018-12-23T17:50:06.341Z,2.60
2018-12-23T17:52:35.775Z,2.57
2018-12-23T17:55:06.105Z,2.80
2018-12-23T17:57:35.525Z,2.50
2018-12-23T18:00:05.478Z,2.30
2018-12-23T18:02:34.931Z,2.50
2018-12-23T18:05:04.838Z,2.10
2018-12-23T18:07:34.269Z,2.20
2018-12-23T18:10:03.762Z,2.20
2018-12-23T18:12:33.182Z,2.23
2018-12-23T18:15:02.630Z,2.10
2018-12-23T18:17:32.190Z,2.30
2018-12-23T18:20:01.594Z,2.47
2018-12-23T18:22:31.018Z,2.13
2018-12-23T18:25:00.430Z,2.53
2018-12-23T18:27:29.859Z,2.40
2018-12-23T18:29:59.281Z,2.20
2018-12-23T18:32:28.705Z,2.20
2018-12-23T18:34:58.126Z,2.10
2018-12-23T18:37:27.549Z,1.97
2018-12-23T18:39:56.970Z,2.10
2018-12-23T18:42:26.391Z,2.40
2018-12-23T18:44:55.809Z,2.00
2018-12-23T18:47:25.242Z,2.33
2018-12-23T18:49:54.651Z,1.93
2018-12-23T18:52:24.163Z,1.93
2018-12-23T18:54:53.579Z,1.90
2018-12-23T18:57:23.003Z,2.17
2018-12-23T18:59:52.426Z,2.20
2018-12-23T19:02:21.977Z,2.33
2018-12-23T19:04:51.555Z,2.30
2018-12-23T19:07:20.959Z,2.10
2018-12-23T19:09:51.923Z,2.70
2018-12-23T19:12:39.290Z,2.50
2018-12-23T19:15:14.313Z,2.27
2018-12-23T19:17:58.712Z,2.77
2018-12-23T19:20:42.949Z,3.23
2018-12-23T19:23:21.376Z,2.90
2018-12-23T19:26:20.782Z,3.07
2018-12-23T19:28:55.934Z,3.53
2018-12-23T19:31:44.987Z,3.50
2018-12-23T19:34:20.255Z,3.50
2018-12-23T19:36:58.217Z,3.63
2018-12-23T19:39:45.720Z,3.50
2018-12-23T19:42:30.087Z,4.10
2018-12-23T19:45:02.594Z,4.30
2018-12-23T19:47:52.864Z,4.53
2018-12-23T19:50:48.861Z,3.87
2018-12-23T19:53:26.971Z,4.17
2018-12-23T19:55:59.447Z,4.73
2018-12-23T19:58:48.188Z,4.47
2018-12-23T20:01:37.194Z,4.90
2018-12-23T20:04:21.333Z,4.60
2018-12-23T20:07:17.550Z,4.60
2018-12-23T20:09:50.041Z,4.93
2018-12-23T20:12:28.494Z,4.70
2018-12-23T20:15:03.623Z,4.20
2018-12-23T20:17:41.794Z,4.90
2018-12-23T20:20:26.026Z,4.83
2018-12-23T20:23:07.453Z,5.30
2018-12-23T20:25:48.659Z,5.40
2018-12-23T20:28:23.978Z,5.13
2018-12-23T20:31:11.394Z,5.00
2018-12-23T20:33:52.510Z,5.40
2018-12-23T20:36:30.653Z,5.10
2018-12-23T20:39:20.841Z,5.63
2018-12-23T20:42:23.197Z,5.07
2018-12-23T20:45:01.458Z,5.37
2018-12-23T20:47:38.105Z,6.27
2018-12-23T20:50:16.342Z,6.80
2018-12-23T20:52:54.550Z,5.90
2018-12-23T20:55:50.826Z,6.27
2018-12-23T20:58:41.157Z,5.63
2018-12-23T21:01:11.790Z,5.43
2018-12-23T21:03:55.274Z,5.47
2018-12-23T21:06:33.505Z,4.97
2018-12-23T21:09:20.860Z,5.60
2018-12-23T21:12:02.217Z,5.77
2018-12-23T21:15:00.170Z,5.87
2018-12-23T21:17:50.050Z,5.63
2018-12-23T21:20:53.805Z,5.27
2018-12-23T21:23:37.802Z,4.07
2018-12-23T21:26:16.010Z,4.50
2018-12-23T21:29:00.137Z,4.47
2018-12-23T21:31:44.308Z,5.67
2018-12-23T21:34:16.808Z,5.10
2018-12-23T21:36:47.430Z,4.53
2018-12-23T21:39:28.409Z,4.50
2018-12-23T21:42:12.450Z,3.87
2018-12-23T21:44:49.198Z,4.10
2018-12-23T21:47:22.590Z,4.50
2018-12-23T21:50:24.418Z,4.70
2018-12-23T21:53:02.356Z,4.80
2018-12-23T21:56:07.599Z,5.70
2018-12-23T21:58:42.970Z,6.77
2018-12-23T22:01:41.014Z,5.97
2018-12-23T22:04:25.349Z,4.57
2018-12-23T22:07:12.793Z,4.67
2018-12-23T22:09:55.270Z,5.47
2018-12-23T22:12:25.805Z,6.13
2018-12-23T22:14:55.138Z,6.23
2018-12-23T22:17:24.567Z,6.40
2018-12-23T22:19:53.990Z,6.50
2018-12-23T22:22:23.413Z,7.67
2018-12-23T22:24:52.834Z,5.43
2018-12-23T22:27:22.262Z,5.17
2018-12-23T22:29:51.363Z,7.30
2018-12-23T22:32:20.689Z,5.17
2018-12-23T22:34:50.116Z,5.43
2018-12-23T22:37:19.532Z,5.07
2018-12-23T22:39:48.626Z,4.83
2018-12-23T22:42:17.959Z,5.00
2018-12-23T22:44:47.383Z,5.60
2018-12-23T22:47:16.814Z,4.60
2018-12-23T22:49:46.226Z,4.13
2018-12-23T22:52:15.321Z,4.30
2018-12-23T22:54:44.325Z,4.17
2018-12-23T22:57:13.657Z,4.63
2018-12-23T22:59:43.082Z,5.10
2018-12-23T23:02:12.502Z,4.70
2018-12-23T23:04:41.926Z,4.67
2018-12-23T23:07:11.350Z,5.17
2018-12-23T23:09:40.441Z,5.20
2018-12-23T23:12:09.773Z,4.10
2018-12-23T23:14:39.193Z,5.07
2018-12-23T23:17:08.627Z,5.67
2018-12-23T23:19:38.083Z,4.80
2018-12-23T23:22:07.554Z,6.37
2018-12-23T23:24:36.633Z,5.30
2018-12-23T23:27:05.974Z,4.47
2018-12-23T23:29:35.394Z,3.60
2018-12-23T23:32:04.488Z,4.13
2018-12-23T23:34:33.822Z,3.80
2018-12-23T23:37:03.242Z,3.57
2018-12-23T23:39:32.658Z,3.60
2018-12-23T23:42:01.749Z,3.20
2018-12-23T23:44:30.749Z,3.10
2018-12-23T23:47:00.076Z,3.23
2018-12-23T23:49:29.165Z,3.00
2018-12-23T23:51:58.489Z,2.93
2018-12-23T23:54:27.914Z,2.70
2018-12-23T23:56:57.338Z,2.50
2018-12-23T23:59:26.763Z,2.47
